createdAt,value
2022-11-15T00:00:59.733Z,9.10
2022-11-15T00:03:28.786Z,9.20
2022-11-15T00:05:56.129Z,9.20
2022-11-15T00:08:23.204Z,9.20
2022-11-15T00:11:01.847Z,9.20
2022-11-15T00:13:30.106Z,9.10
2022-11-15T00:16:02.121Z,9.10
2022-11-15T00:18:30.071Z,9.10
2022-11-15T00:20:57.755Z,9.20
2022-11-15T00:23:24.677Z,9.20
2022-11-15T00:25:59.401Z,9.20
2022-11-15T00:28:27.029Z,9.20
2022-11-15T00:30:53.978Z,9.20
2022-11-15T00:33:21.043Z,9.20
2022-11-15T00:35:48.060Z,9.20
2022-11-15T00:38:15.422Z,9.20
2022-11-15T00:40:42.900Z,9.20
2022-11-15T00:43:09.873Z,9.20
2022-11-15T00:45:36.886Z,9.20
2022-11-15T00:48:04.034Z,9.20
2022-11-15T00:50:31.003Z,9.30
2022-11-15T00:52:57.915Z,9.30
2022-11-15T00:55:24.935Z,9.30
2022-11-15T00:57:51.897Z,9.30
2022-11-15T01:00:19.000Z,9.30
2022-11-15T01:02:45.955Z,9.30
2022-11-15T01:05:12.887Z,9.30
2022-11-15T01:07:39.924Z,9.30
2022-11-15T01:10:07.552Z,9.30
2022-11-15T01:12:34.497Z,9.40
2022-11-15T01:15:01.628Z,9.40
2022-11-15T01:17:28.627Z,9.30
2022-11-15T01:19:55.533Z,9.20
2022-11-15T01:22:22.571Z,9.10
2022-11-15T01:24:51.845Z,9.10
2022-11-15T01:27:18.872Z,9.10
2022-11-15T01:29:45.837Z,9.10
2022-11-15T01:32:12.806Z,8.90
2022-11-15T01:34:39.831Z,8.90
2022-11-15T01:37:06.762Z,8.90
2022-11-15T01:39:35.001Z,9.00
2022-11-15T01:42:01.966Z,9.00
2022-11-15T01:44:35.074Z,9.00
2022-11-15T01:47:07.668Z,9.00
2022-11-15T01:49:38.822Z,8.90
2022-11-15T01:52:14.606Z,8.90
2022-11-15T01:54:41.677Z,8.80
2022-11-15T01:57:11.738Z,8.90
2022-11-15T01:59:40.654Z,8.90
2022-11-15T02:02:08.190Z,8.90
2022-11-15T02:04:47.395Z,8.90
2022-11-15T02:07:18.844Z,8.90
2022-11-15T02:09:54.633Z,8.90
2022-11-15T02:12:43.731Z,8.90
2022-11-15T02:15:12.281Z,8.90
2022-11-15T02:18:02.109Z,8.90
2022-11-15T02:20:48.320Z,8.90
2022-11-15T02:23:45.124Z,8.90
2022-11-15T02:26:33.380Z,8.90
2022-11-15T02:29:12.879Z,8.90
2022-11-15T02:32:01.778Z,8.80
2022-11-15T02:34:51.680Z,8.70
2022-11-15T02:37:41.846Z,8.80
2022-11-15T02:40:19.092Z,8.80
2022-11-15T02:43:18.698Z,8.80
2022-11-15T02:45:55.391Z,8.90
2022-11-15T02:48:24.542Z,8.90
2022-11-15T02:50:52.278Z,8.90
2022-11-15T02:53:19.188Z,8.90
2022-11-15T02:55:52.246Z,8.90
2022-11-15T02:58:25.058Z,8.90
2022-11-15T03:01:05.390Z,8.90
2022-11-15T03:03:47.391Z,8.90
2022-11-15T03:06:31.062Z,8.90
2022-11-15T03:09:06.318Z,8.90
2022-11-15T03:11:42.414Z,8.90
2022-11-15T03:14:15.247Z,8.80
2022-11-15T03:16:46.982Z,8.80
2022-11-15T03:19:35.492Z,8.70
2022-11-15T03:22:06.787Z,8.70
2022-11-15T03:24:37.443Z,8.70
2022-11-15T03:27:06.796Z,8.70
2022-11-15T03:29:39.339Z,8.60
2022-11-15T03:32:31.114Z,8.60
2022-11-15T03:35:03.067Z,8.60
2022-11-15T03:37:40.729Z,8.60
2022-11-15T03:40:08.517Z,8.60
2022-11-15T03:42:45.902Z,8.50
2022-11-15T03:45:37.386Z,8.50
2022-11-15T03:48:14.646Z,8.50
2022-11-15T03:50:43.612Z,8.50
2022-11-15T03:53:11.114Z,8.40
2022-11-15T03:55:38.070Z,8.30
2022-11-15T03:58:05.471Z,8.30
2022-11-15T04:00:32.684Z,8.30
2022-11-15T04:02:59.642Z,8.40
2022-11-15T04:05:26.792Z,8.40
2022-11-15T04:07:53.795Z,8.40
2022-11-15T04:10:21.080Z,8.50
2022-11-15T04:12:48.788Z,8.50
2022-11-15T04:15:22.179Z,8.50
2022-11-15T04:17:51.223Z,8.50
2022-11-15T04:20:47.992Z,8.60
2022-11-15T04:23:37.999Z,8.60
2022-11-15T04:26:17.265Z,8.60
2022-11-15T04:29:02.952Z,8.60
2022-11-15T04:31:30.033Z,8.60
2022-11-15T04:33:57.353Z,8.60
2022-11-15T04:36:43.237Z,8.60
2022-11-15T04:39:10.260Z,8.60
2022-11-15T04:41:37.269Z,8.60
2022-11-15T04:44:04.305Z,8.60
2022-11-15T04:46:31.255Z,8.70
2022-11-15T04:48:59.262Z,8.60
2022-11-15T04:51:26.891Z,8.60
2022-11-15T04:53:53.979Z,8.60
2022-11-15T04:56:20.991Z,8.60
2022-11-15T04:58:50.762Z,8.60
2022-11-15T05:01:18.382Z,8.70
2022-11-15T05:04:04.705Z,8.60
2022-11-15T05:06:31.981Z,8.60
2022-11-15T05:08:59.187Z,8.70
2022-11-15T05:11:26.507Z,8.60
2022-11-15T05:13:53.408Z,8.60
2022-11-15T05:16:20.550Z,8.60
2022-11-15T05:18:47.520Z,8.60
2022-11-15T05:21:15.896Z,8.50
2022-11-15T05:23:43.244Z,8.50
2022-11-15T05:26:10.740Z,8.50
2022-11-15T05:28:38.177Z,8.50
2022-11-15T05:31:07.506Z,8.50
2022-11-15T05:33:35.737Z,8.50
2022-11-15T05:36:08.961Z,8.60
2022-11-15T05:38:35.919Z,8.50
2022-11-15T05:41:03.923Z,8.50
2022-11-15T05:43:34.378Z,8.60
2022-11-15T05:46:02.782Z,8.60
2022-11-15T05:48:29.947Z,8.60
2022-11-15T05:50:57.570Z,8.60
2022-11-15T05:53:26.609Z,8.60
2022-11-15T05:55:53.761Z,8.60
2022-11-15T05:58:21.605Z,8.60
2022-11-15T06:00:48.870Z,8.50
2022-11-15T06:03:15.853Z,8.60
2022-11-15T06:05:42.791Z,8.60
2022-11-15T06:08:09.738Z,8.60
2022-11-15T06:10:36.768Z,8.60
2022-11-15T06:13:05.749Z,8.50
2022-11-15T06:15:37.530Z,8.60
2022-11-15T06:18:04.649Z,8.50
2022-11-15T06:20:32.104Z,8.60
2022-11-15T06:23:04.078Z,8.60
2022-11-15T06:25:31.958Z,8.60
2022-11-15T06:27:59.852Z,8.60
2022-11-15T06:30:27.887Z,8.60
2022-11-15T06:33:05.494Z,8.60
2022-11-15T06:35:35.579Z,8.70
2022-11-15T06:38:10.592Z,8.70
2022-11-15T06:40:38.961Z,8.70
2022-11-15T06:43:07.030Z,8.80
2022-11-15T06:45:34.283Z,8.80
2022-11-15T06:48:01.302Z,8.90
2022-11-15T06:50:28.311Z,9.00
2022-11-15T06:52:55.714Z,9.00
2022-11-15T06:55:22.933Z,9.00
2022-11-15T06:57:51.802Z,9.00
2022-11-15T07:00:20.733Z,9.00
2022-11-15T07:02:48.388Z,9.00
2022-11-15T07:05:16.536Z,8.90
2022-11-15T07:07:43.773Z,8.90
2022-11-15T07:10:11.171Z,8.90
2022-11-15T07:12:38.130Z,8.90
2022-11-15T07:15:05.587Z,8.80
2022-11-15T07:17:32.986Z,8.90
2022-11-15T07:19:59.913Z,9.00
2022-11-15T07:22:26.892Z,9.00
2022-11-15T07:24:54.021Z,9.00
2022-11-15T07:27:20.987Z,9.10
2022-11-15T07:29:47.966Z,9.10
2022-11-15T07:32:15.211Z,9.10
2022-11-15T07:34:42.191Z,9.20
2022-11-15T07:37:09.334Z,9.30
2022-11-15T07:39:36.346Z,9.40
2022-11-15T07:42:22.036Z,9.50
2022-11-15T07:44:49.058Z,9.50
2022-11-15T07:47:16.152Z,9.50
2022-11-15T07:49:43.081Z,9.50
2022-11-15T07:52:10.081Z,9.50
2022-11-15T07:54:37.113Z,9.50
2022-11-15T07:57:07.563Z,9.40
2022-11-15T07:59:36.087Z,9.30
2022-11-15T08:02:03.646Z,9.40
2022-11-15T08:04:30.660Z,9.40
2022-11-15T08:06:58.440Z,9.60
2022-11-15T08:09:25.549Z,9.80
2022-11-15T08:11:52.701Z,9.90
2022-11-15T08:14:19.633Z,9.80
2022-11-15T08:16:46.559Z,9.70
2022-11-15T08:19:13.581Z,9.50
2022-11-15T08:21:40.539Z,9.50
2022-11-15T08:24:09.914Z,9.50
2022-11-15T08:26:36.868Z,9.60
2022-11-15T08:29:04.198Z,9.90
2022-11-15T08:31:31.219Z,10.10
2022-11-15T08:33:58.158Z,10.30
2022-11-15T08:36:27.572Z,10.30
2022-11-15T08:38:56.787Z,10.40
2022-11-15T08:41:36.387Z,10.60
2022-11-15T08:44:03.430Z,10.60
2022-11-15T08:46:30.368Z,10.70
2022-11-15T08:48:57.471Z,10.90
2022-11-15T08:51:24.430Z,11.00
2022-11-15T08:53:54.119Z,11.10
2022-11-15T08:56:21.567Z,11.00
2022-11-15T08:58:48.645Z,10.80
2022-11-15T09:01:21.042Z,10.60
2022-11-15T09:03:48.403Z,10.60
2022-11-15T09:06:15.988Z,10.30
2022-11-15T09:08:47.860Z,10.10
2022-11-15T09:11:18.106Z,10.30
2022-11-15T09:13:45.122Z,10.40
2022-11-15T09:16:13.741Z,10.50
2022-11-15T09:18:40.968Z,10.70
2022-11-15T09:21:25.021Z,10.80
2022-11-15T09:23:53.907Z,10.90
2022-11-15T09:26:21.416Z,10.80
2022-11-15T09:28:48.916Z,10.70
2022-11-15T09:31:20.957Z,10.80
2022-11-15T09:33:49.162Z,10.80
2022-11-15T09:36:16.417Z,10.90
2022-11-15T09:38:43.358Z,11.10
2022-11-15T09:41:12.998Z,10.90
2022-11-15T09:44:08.049Z,11.00
2022-11-15T09:47:00.193Z,10.80
2022-11-15T09:49:27.453Z,11.00
2022-11-15T09:51:55.644Z,11.10
2022-11-15T09:54:52.172Z,11.50
2022-11-15T09:57:42.898Z,11.80
2022-11-15T10:00:46.040Z,11.80
2022-11-15T10:03:21.598Z,11.90
2022-11-15T10:05:54.509Z,12.00
2022-11-15T10:08:42.571Z,12.30
2022-11-15T10:11:36.743Z,12.40
2022-11-15T10:14:24.872Z,12.30
2022-11-15T10:16:56.530Z,12.40
2022-11-15T10:19:34.187Z,12.50
2022-11-15T10:22:30.637Z,12.50
2022-11-15T10:25:10.120Z,12.10
2022-11-15T10:27:38.119Z,12.40
2022-11-15T10:30:14.897Z,12.60
2022-11-15T10:32:45.490Z,12.50
2022-11-15T10:35:23.902Z,12.30
2022-11-15T10:37:51.134Z,12.50
2022-11-15T10:40:24.573Z,12.40
2022-11-15T10:43:19.868Z,12.10
2022-11-15T10:45:47.929Z,12.10
2022-11-15T10:48:15.995Z,12.30
2022-11-15T10:50:46.268Z,12.00
2022-11-15T10:53:43.028Z,12.40
2022-11-15T10:56:16.850Z,12.40
2022-11-15T10:58:51.336Z,12.30
2022-11-15T11:01:24.993Z,12.30
2022-11-15T11:04:10.031Z,12.20
2022-11-15T11:06:50.794Z,12.30
2022-11-15T11:09:38.903Z,12.30
2022-11-15T11:12:10.903Z,12.60
2022-11-15T11:14:39.968Z,12.80
2022-11-15T11:17:27.450Z,13.00
2022-11-15T11:20:19.640Z,13.00
2022-11-15T11:23:14.288Z,13.00
2022-11-15T11:26:07.158Z,12.70
2022-11-15T11:28:58.275Z,12.80
2022-11-15T11:31:43.272Z,12.60
2022-11-15T11:34:39.186Z,12.20
2022-11-15T11:37:45.101Z,11.80
2022-11-15T11:40:30.966Z,11.70
2022-11-15T11:43:22.551Z,11.50
2022-11-15T11:46:12.101Z,11.60
2022-11-15T11:48:43.960Z,11.60
2022-11-15T11:51:20.538Z,11.60
2022-11-15T11:53:53.602Z,11.50
2022-11-15T11:56:26.322Z,11.40
2022-11-15T11:58:55.618Z,11.50
2022-11-15T12:01:44.048Z,11.70
2022-11-15T12:04:30.763Z,11.90
2022-11-15T12:07:22.812Z,11.80
2022-11-15T12:10:17.117Z,11.90
2022-11-15T12:13:07.060Z,11.80
2022-11-15T12:15:48.485Z,12.00
2022-11-15T12:18:17.573Z,12.00
2022-11-15T12:20:58.321Z,11.90
2022-11-15T12:23:42.485Z,11.90
2022-11-15T12:26:21.842Z,11.90
2022-11-15T12:29:08.836Z,12.00
2022-11-15T12:31:36.096Z,12.20
2022-11-15T12:34:30.943Z,12.30
2022-11-15T12:36:57.906Z,12.40
2022-11-15T12:40:04.183Z,12.70
2022-11-15T12:42:31.395Z,12.80
2022-11-15T12:45:26.217Z,12.90
2022-11-15T12:47:53.232Z,13.20
2022-11-15T12:50:52.785Z,13.30
2022-11-15T12:53:25.673Z,13.40
2022-11-15T12:56:04.566Z,13.50
2022-11-15T12:58:58.261Z,13.80
2022-11-15T13:01:34.282Z,13.90
2022-11-15T13:04:28.089Z,14.10
2022-11-15T13:06:55.267Z,14.10
2022-11-15T13:09:37.072Z,14.20
2022-11-15T13:12:35.419Z,14.20
2022-11-15T13:15:12.460Z,14.20
2022-11-15T13:17:52.746Z,14.40
2022-11-15T13:20:31.662Z,14.40
2022-11-15T13:23:13.413Z,14.30
2022-11-15T13:26:17.538Z,14.10
2022-11-15T13:28:53.408Z,14.00
2022-11-15T13:31:28.312Z,13.90
2022-11-15T13:34:00.982Z,13.80
2022-11-15T13:36:31.651Z,13.80
2022-11-15T13:39:24.493Z,13.90
2022-11-15T13:41:52.740Z,13.90
2022-11-15T13:44:25.564Z,13.90
2022-11-15T13:47:06.120Z,13.90
2022-11-15T13:49:35.141Z,13.80
2022-11-15T13:52:05.590Z,13.90
2022-11-15T13:55:00.018Z,13.90
2022-11-15T13:57:31.304Z,13.90
2022-11-15T14:00:03.413Z,13.80
2022-11-15T14:02:39.755Z,13.70
2022-11-15T14:05:25.327Z,13.70
2022-11-15T14:08:01.229Z,13.70
2022-11-15T14:10:34.710Z,13.70
2022-11-15T14:13:02.567Z,13.70
2022-11-15T14:15:31.498Z,13.60
2022-11-15T14:17:58.876Z,13.50
2022-11-15T14:20:31.752Z,13.40
2022-11-15T14:22:59.652Z,13.30
2022-11-15T14:25:31.780Z,13.20
2022-11-15T14:28:16.927Z,13.20
2022-11-15T14:30:48.240Z,13.10
2022-11-15T14:33:34.475Z,13.00
2022-11-15T14:36:15.352Z,13.00
2022-11-15T14:38:43.982Z,12.80
2022-11-15T14:41:26.109Z,12.80
2022-11-15T14:43:53.984Z,12.70
2022-11-15T14:46:21.048Z,12.70
2022-11-15T14:48:48.037Z,12.70
2022-11-15T14:51:19.185Z,12.60
2022-11-15T14:53:46.977Z,12.60
2022-11-15T14:56:15.150Z,12.60
2022-11-15T14:58:42.309Z,12.60
2022-11-15T15:01:28.102Z,12.60
2022-11-15T15:03:58.150Z,12.60
2022-11-15T15:06:25.736Z,12.60
2022-11-15T15:08:52.771Z,12.50
2022-11-15T15:11:25.481Z,12.50
2022-11-15T15:13:53.487Z,12.40
2022-11-15T15:16:20.907Z,12.40
2022-11-15T15:18:48.165Z,12.30
2022-11-15T15:21:29.896Z,12.20
2022-11-15T15:24:00.799Z,12.20
2022-11-15T15:26:28.029Z,12.10
2022-11-15T15:28:55.138Z,12.00
2022-11-15T15:31:22.108Z,11.90
2022-11-15T15:33:49.098Z,11.80
2022-11-15T15:36:19.682Z,11.80
2022-11-15T15:38:47.827Z,11.70
2022-11-15T15:41:16.677Z,11.70
2022-11-15T15:43:43.870Z,11.60
2022-11-15T15:46:16.449Z,11.60
2022-11-15T15:48:43.636Z,11.50
2022-11-15T15:51:18.527Z,11.50
2022-11-15T15:53:47.083Z,11.40
2022-11-15T15:56:13.981Z,11.20
2022-11-15T15:58:40.949Z,11.20
2022-11-15T16:01:08.046Z,11.20
2022-11-15T16:03:35.008Z,11.10
2022-11-15T16:06:02.228Z,11.00
2022-11-15T16:08:42.629Z,11.00
2022-11-15T16:11:17.680Z,11.00
2022-11-15T16:13:44.631Z,10.90
2022-11-15T16:16:14.766Z,10.80
2022-11-15T16:18:41.696Z,10.70
2022-11-15T16:21:09.703Z,10.70
2022-11-15T16:23:36.669Z,10.60
2022-11-15T16:26:10.947Z,10.60
2022-11-15T16:28:38.096Z,10.50
2022-11-15T16:31:10.645Z,10.40
2022-11-15T16:33:38.430Z,10.40
2022-11-15T16:36:09.980Z,10.40
2022-11-15T16:38:37.349Z,10.30
2022-11-15T16:41:04.668Z,10.20
2022-11-15T16:43:31.657Z,10.20
2022-11-15T16:45:58.696Z,10.20
2022-11-15T16:48:28.233Z,10.10
2022-11-15T16:50:57.068Z,10.00
2022-11-15T16:53:24.316Z,10.00
2022-11-15T16:55:51.293Z,9.90
2022-11-15T16:58:18.200Z,9.90
2022-11-15T17:00:45.318Z,9.80
2022-11-15T17:05:58.130Z,9.70
2022-11-15T17:08:25.151Z,9.80
2022-11-15T17:10:52.244Z,9.70
2022-11-15T17:13:19.550Z,9.70
2022-11-15T17:15:46.564Z,9.70
2022-11-15T17:18:15.526Z,9.70
2022-11-15T17:20:43.527Z,9.60
2022-11-15T17:23:14.836Z,9.60
2022-11-15T17:25:42.036Z,9.50
2022-11-15T17:28:09.118Z,9.50
2022-11-15T17:30:36.179Z,9.50
2022-11-15T17:33:03.174Z,9.40
2022-11-15T17:35:30.096Z,9.40
2022-11-15T17:37:57.089Z,9.40
2022-11-15T17:40:24.039Z,9.40
2022-11-15T17:42:51.052Z,9.40
2022-11-15T17:45:18.115Z,9.40
2022-11-15T17:47:45.120Z,9.40
2022-11-15T17:50:12.035Z,9.40
2022-11-15T17:52:39.071Z,9.50
2022-11-15T17:55:07.660Z,9.50
2022-11-15T17:57:34.613Z,9.60
2022-11-15T18:00:01.622Z,9.60
2022-11-15T18:02:28.581Z,9.70
2022-11-15T18:04:55.494Z,9.70
2022-11-15T18:07:22.497Z,9.70
2022-11-15T18:09:49.596Z,9.70
2022-11-15T18:12:16.791Z,9.70
2022-11-15T18:14:43.786Z,9.70
2022-11-15T18:17:10.756Z,9.70
2022-11-15T18:19:37.851Z,9.80
2022-11-15T18:22:07.397Z,9.90
2022-11-15T18:24:42.710Z,10.00
2022-11-15T18:27:09.815Z,9.90
2022-11-15T18:29:38.068Z,9.90
2022-11-15T18:32:12.824Z,10.00
2022-11-15T18:34:40.149Z,10.10
2022-11-15T18:37:09.582Z,10.10
2022-11-15T18:39:39.851Z,10.00
2022-11-15T18:42:06.834Z,10.00
2022-11-15T18:44:34.518Z,10.00
2022-11-15T18:47:01.544Z,10.00
2022-11-15T18:49:28.724Z,10.00
2022-11-15T18:51:57.057Z,10.10
2022-11-15T18:54:29.641Z,10.20
2022-11-15T18:56:58.085Z,10.30
2022-11-15T18:59:27.772Z,10.30
2022-11-15T19:01:56.106Z,10.30
2022-11-15T19:04:23.159Z,10.30
2022-11-15T19:06:50.999Z,10.40
2022-11-15T19:09:19.634Z,10.40
2022-11-15T19:11:48.257Z,10.40
2022-11-15T19:14:17.167Z,10.40
2022-11-15T19:16:52.557Z,10.30
2022-11-15T19:19:28.480Z,10.40
2022-11-15T19:21:57.629Z,10.30
2022-11-15T19:24:26.754Z,10.30
2022-11-15T19:26:55.000Z,10.30
2022-11-15T19:29:22.151Z,10.30
2022-11-15T19:31:49.102Z,10.20
2022-11-15T19:34:16.648Z,10.10
2022-11-15T19:36:45.499Z,10.10
2022-11-15T19:39:14.357Z,10.10
2022-11-15T19:41:43.738Z,10.10
2022-11-15T19:44:12.381Z,10.20
2022-11-15T19:46:39.557Z,10.20
2022-11-15T19:49:08.133Z,10.20
2022-11-15T19:51:35.105Z,10.20
2022-11-15T19:54:06.659Z,10.10
2022-11-15T19:56:34.927Z,10.10
2022-11-15T19:59:02.634Z,10.10
2022-11-15T20:01:32.005Z,10.20
2022-11-15T20:04:00.325Z,10.20
2022-11-15T20:06:36.054Z,10.20
2022-11-15T20:09:03.633Z,10.20
2022-11-15T20:11:30.582Z,10.20
2022-11-15T20:14:02.314Z,10.20
2022-11-15T20:16:30.081Z,10.10
2022-11-15T20:18:57.523Z,10.10
2022-11-15T20:21:25.037Z,10.00
2022-11-15T20:23:52.487Z,9.90
2022-11-15T20:26:20.607Z,9.90
2022-11-15T20:28:49.608Z,9.90
2022-11-15T20:31:17.391Z,9.80
2022-11-15T20:33:44.495Z,9.80
2022-11-15T20:36:14.448Z,9.70
2022-11-15T20:38:42.067Z,9.80
2022-11-15T20:41:11.486Z,9.80
2022-11-15T20:43:38.888Z,9.70
2022-11-15T20:46:05.931Z,9.70
2022-11-15T20:48:33.152Z,9.70
2022-11-15T20:51:06.224Z,9.70
2022-11-15T20:53:33.609Z,9.60
2022-11-15T20:56:22.328Z,9.50
2022-11-15T20:58:53.497Z,9.50
2022-11-15T21:01:24.913Z,9.50
2022-11-15T21:03:54.328Z,9.50
2022-11-15T21:06:22.188Z,9.40
2022-11-15T21:09:09.358Z,9.40
2022-11-15T21:11:55.403Z,9.40
2022-11-15T21:14:22.417Z,9.50
2022-11-15T21:16:51.805Z,9.50
2022-11-15T21:19:21.592Z,9.50
2022-11-15T21:21:49.723Z,9.40
2022-11-15T21:24:16.781Z,9.50
2022-11-15T21:26:43.712Z,9.40
2022-11-15T21:29:10.771Z,9.50
2022-11-15T21:31:37.675Z,9.50
2022-11-15T21:34:04.688Z,9.50
2022-11-15T21:36:31.755Z,9.50
2022-11-15T21:38:59.180Z,9.60
2022-11-15T21:41:26.205Z,9.60
2022-11-15T21:43:57.140Z,9.50
2022-11-15T21:46:24.059Z,9.60
2022-11-15T21:48:51.033Z,9.60
2022-11-15T21:51:18.097Z,9.60
2022-11-15T21:53:45.085Z,9.60
2022-11-15T21:56:12.311Z,9.60
2022-11-15T21:58:39.924Z,9.50
2022-11-15T22:01:26.783Z,9.50
2022-11-15T22:03:53.750Z,9.50
2022-11-15T22:06:20.682Z,9.50
2022-11-15T22:08:47.814Z,9.50
2022-11-15T22:11:15.454Z,9.50
2022-11-15T22:13:43.166Z,9.50
2022-11-15T22:16:10.581Z,9.50
2022-11-15T22:18:38.519Z,9.50
2022-11-15T22:21:11.230Z,9.50
2022-11-15T22:23:38.377Z,9.50
2022-11-15T22:26:05.760Z,9.50
2022-11-15T22:28:33.114Z,9.60
2022-11-15T22:31:00.493Z,9.50
2022-11-15T22:33:30.804Z,9.50
2022-11-15T22:35:58.720Z,9.50
2022-11-15T22:38:26.798Z,9.50
2022-11-15T22:40:54.621Z,9.60
2022-11-15T22:43:23.820Z,9.60
2022-11-15T22:45:59.030Z,9.60
2022-11-15T22:48:28.987Z,9.60
2022-11-15T22:50:56.575Z,9.70
2022-11-15T22:53:23.811Z,9.70
2022-11-15T22:55:52.930Z,9.70
2022-11-15T22:58:21.533Z,9.70
2022-11-15T23:00:50.251Z,9.70
2022-11-15T23:03:18.507Z,9.80
2022-11-15T23:05:45.815Z,9.80
2022-11-15T23:08:13.313Z,9.80
2022-11-15T23:10:58.821Z,9.70
2022-11-15T23:13:29.071Z,9.80
2022-11-15T23:16:23.792Z,9.70
2022-11-15T23:18:51.855Z,9.70
2022-11-15T23:21:43.607Z,9.70
2022-11-15T23:24:12.258Z,9.70
2022-11-15T23:26:40.059Z,9.60
2022-11-15T23:29:09.599Z,9.60
2022-11-15T23:32:01.487Z,9.60
2022-11-15T23:34:31.330Z,9.50
2022-11-15T23:36:59.137Z,9.50
2022-11-15T23:39:26.704Z,9.40
2022-11-15T23:41:53.729Z,9.40
2022-11-15T23:44:20.857Z,9.40
2022-11-15T23:46:47.937Z,9.30
2022-11-15T23:49:15.149Z,9.40
2022-11-15T23:51:42.314Z,9.30
2022-11-15T23:54:09.423Z,9.30
2022-11-15T23:56:37.487Z,9.30
2022-11-15T23:59:25.013Z,9.20
